sensor_id;sensor_type;location;lat;lon;timestamp;temperature;humidity
5346;DHT22;2695;49.444;11.054;2022-08-19T00:00:28;23.20;99.90
5346;DHT22;2695;49.444;11.054;2022-08-19T00:02:56;23.20;99.90
5346;DHT22;2695;49.444;11.054;2022-08-19T00:05:24;23.10;99.90
5346;DHT22;2695;49.444;11.054;2022-08-19T00:07:52;23.10;99.90
5346;DHT22;2695;49.444;11.054;2022-08-19T00:10:20;23.00;99.90
5346;DHT22;2695;49.444;11.054;2022-08-19T00:12:48;23.00;99.90
5346;DHT22;2695;49.444;11.054;2022-08-19T00:15:20;22.90;99.90
5346;DHT22;2695;49.444;11.054;2022-08-19T00:17:48;22.90;99.90
5346;DHT22;2695;49.444;11.054;2022-08-19T00:20:18;22.80;99.90
5346;DHT22;2695;49.444;11.054;2022-08-19T00:22:47;22.80;99.90
5346;DHT22;2695;49.444;11.054;2022-08-19T00:25:16;22.80;99.90
5346;DHT22;2695;49.444;11.054;2022-08-19T00:27:56;22.80;99.90
5346;DHT22;2695;49.444;11.054;2022-08-19T00:30:25;22.70;99.90
5346;DHT22;2695;49.444;11.054;2022-08-19T00:32:54;22.70;99.90
5346;DHT22;2695;49.444;11.054;2022-08-19T00:35:23;22.60;99.90
5346;DHT22;2695;49.444;11.054;2022-08-19T00:37:51;22.50;99.90
5346;DHT22;2695;49.444;11.054;2022-08-19T00:40:19;22.50;99.90
5346;DHT22;2695;49.444;11.054;2022-08-19T00:42:47;22.50;99.90
5346;DHT22;2695;49.444;11.054;2022-08-19T00:45:17;22.60;99.90
5346;DHT22;2695;49.444;11.054;2022-08-19T00:47:48;22.60;99.90
5346;DHT22;2695;49.444;11.054;2022-08-19T00:50:18;22.70;99.90
5346;DHT22;2695;49.444;11.054;2022-08-19T00:52:50;22.80;99.90
5346;DHT22;2695;49.444;11.054;2022-08-19T00:55:22;22.90;99.90
5346;DHT22;2695;49.444;11.054;2022-08-19T00:57:54;22.90;99.90
5346;DHT22;2695;49.444;11.054;2022-08-19T01:00:24;22.90;99.90
5346;DHT22;2695;49.444;11.054;2022-08-19T01:02:54;22.90;99.90
5346;DHT22;2695;49.444;11.054;2022-08-19T01:05:23;23.00;99.90
5346;DHT22;2695;49.444;11.054;2022-08-19T01:07:54;23.00;99.90
5346;DHT22;2695;49.444;11.054;2022-08-19T01:10:27;23.10;99.90
5346;DHT22;2695;49.444;11.054;2022-08-19T01:13:03;23.00;99.90
5346;DHT22;2695;49.444;11.054;2022-08-19T01:15:33;23.00;99.90
5346;DHT22;2695;49.444;11.054;2022-08-19T01:18:07;23.00;99.90
5346;DHT22;2695;49.444;11.054;2022-08-19T01:20:35;23.00;99.90
5346;DHT22;2695;49.444;11.054;2022-08-19T01:23:05;22.90;99.90
5346;DHT22;2695;49.444;11.054;2022-08-19T01:25:36;22.90;99.90
5346;DHT22;2695;49.444;11.054;2022-08-19T01:28:06;22.90;99.90
5346;DHT22;2695;49.444;11.054;2022-08-19T01:30:37;22.90;99.90
5346;DHT22;2695;49.444;11.054;2022-08-19T01:33:10;22.90;99.90
5346;DHT22;2695;49.444;11.054;2022-08-19T01:35:38;22.90;99.90
5346;DHT22;2695;49.444;11.054;2022-08-19T01:38:09;22.90;99.90
5346;DHT22;2695;49.444;11.054;2022-08-19T01:40:39;22.80;99.90
5346;DHT22;2695;49.444;11.054;2022-08-19T01:43:08;22.80;99.90
5346;DHT22;2695;49.444;11.054;2022-08-19T01:45:37;22.80;99.90
5346;DHT22;2695;49.444;11.054;2022-08-19T01:48:07;22.80;99.90
5346;DHT22;2695;49.444;11.054;2022-08-19T01:50:36;22.80;99.90
5346;DHT22;2695;49.444;11.054;2022-08-19T01:53:09;22.80;99.90
5346;DHT22;2695;49.444;11.054;2022-08-19T01:55:40;22.80;99.90
5346;DHT22;2695;49.444;11.054;2022-08-19T01:58:11;22.70;99.90
5346;DHT22;2695;49.444;11.054;2022-08-19T02:00:40;22.70;99.90
5346;DHT22;2695;49.444;11.054;2022-08-19T02:03:08;22.70;99.90
5346;DHT22;2695;49.444;11.054;2022-08-19T02:05:38;22.70;99.90
5346;DHT22;2695;49.444;11.054;2022-08-19T02:08:08;22.60;99.90
5346;DHT22;2695;49.444;11.054;2022-08-19T02:10:39;22.60;99.90
5346;DHT22;2695;49.444;11.054;2022-08-19T02:13:07;22.60;99.90
5346;DHT22;2695;49.444;11.054;2022-08-19T02:15:36;22.60;99.90
5346;DHT22;2695;49.444;11.054;2022-08-19T02:18:04;22.60;99.90
5346;DHT22;2695;49.444;11.054;2022-08-19T02:20:34;22.60;99.90
5346;DHT22;2695;49.444;11.054;2022-08-19T02:23:02;22.60;99.90
5346;DHT22;2695;49.444;11.054;2022-08-19T02:25:31;22.70;99.90
5346;DHT22;2695;49.444;11.054;2022-08-19T02:27:59;22.70;99.90
5346;DHT22;2695;49.444;11.054;2022-08-19T02:30:27;22.70;99.90
5346;DHT22;2695;49.444;11.054;2022-08-19T02:32:55;22.70;99.90
5346;DHT22;2695;49.444;11.054;2022-08-19T02:35:25;22.70;99.90
5346;DHT22;2695;49.444;11.054;2022-08-19T02:37:53;22.70;99.90
5346;DHT22;2695;49.444;11.054;2022-08-19T02:40:40;22.70;99.90
5346;DHT22;2695;49.444;11.054;2022-08-19T02:43:08;22.70;99.90
5346;DHT22;2695;49.444;11.054;2022-08-19T02:45:38;22.70;99.90
5346;DHT22;2695;49.444;11.054;2022-08-19T02:48:07;22.70;99.90
5346;DHT22;2695;49.444;11.054;2022-08-19T02:50:48;22.70;99.90
5346;DHT22;2695;49.444;11.054;2022-08-19T02:53:23;22.60;99.90
5346;DHT22;2695;49.444;11.054;2022-08-19T02:55:53;22.70;99.90
5346;DHT22;2695;49.444;11.054;2022-08-19T02:58:22;22.70;99.90
5346;DHT22;2695;49.444;11.054;2022-08-19T03:00:52;22.70;99.90
5346;DHT22;2695;49.444;11.054;2022-08-19T03:03:21;22.70;99.90
5346;DHT22;2695;49.444;11.054;2022-08-19T03:05:49;22.70;99.90
5346;DHT22;2695;49.444;11.054;2022-08-19T03:08:23;22.70;99.90
5346;DHT22;2695;49.444;11.054;2022-08-19T03:10:53;22.70;99.90
5346;DHT22;2695;49.444;11.054;2022-08-19T03:13:21;22.60;99.90
5346;DHT22;2695;49.444;11.054;2022-08-19T03:15:49;22.60;99.90
5346;DHT22;2695;49.444;11.054;2022-08-19T03:18:17;22.60;99.90
5346;DHT22;2695;49.444;11.054;2022-08-19T03:20:50;22.60;99.90
5346;DHT22;2695;49.444;11.054;2022-08-19T03:23:19;22.60;99.90
5346;DHT22;2695;49.444;11.054;2022-08-19T03:25:50;22.60;99.90
5346;DHT22;2695;49.444;11.054;2022-08-19T03:28:39;22.60;99.90
5346;DHT22;2695;49.444;11.054;2022-08-19T03:31:16;22.60;99.90
5346;DHT22;2695;49.444;11.054;2022-08-19T03:34:04;22.60;99.90
5346;DHT22;2695;49.444;11.054;2022-08-19T03:36:33;22.60;99.90
5346;DHT22;2695;49.444;11.054;2022-08-19T03:39:02;22.50;99.90
5346;DHT22;2695;49.444;11.054;2022-08-19T03:41:32;22.50;99.90
5346;DHT22;2695;49.444;11.054;2022-08-19T03:44:13;22.50;99.90
5346;DHT22;2695;49.444;11.054;2022-08-19T03:46:45;22.50;99.90
5346;DHT22;2695;49.444;11.054;2022-08-19T03:49:13;22.40;99.90
5346;DHT22;2695;49.444;11.054;2022-08-19T03:51:44;22.40;99.90
5346;DHT22;2695;49.444;11.054;2022-08-19T03:54:13;22.40;99.90
5346;DHT22;2695;49.444;11.054;2022-08-19T03:56:43;22.50;99.90
5346;DHT22;2695;49.444;11.054;2022-08-19T03:59:15;22.50;99.90
5346;DHT22;2695;49.444;11.054;2022-08-19T04:01:44;22.40;99.90
5346;DHT22;2695;49.444;11.054;2022-08-19T04:04:12;22.40;99.90
5346;DHT22;2695;49.444;11.054;2022-08-19T04:06:40;22.40;99.90
5346;DHT22;2695;49.444;11.054;2022-08-19T04:09:09;22.40;99.90
5346;DHT22;2695;49.444;11.054;2022-08-19T04:11:41;22.40;99.90
5346;DHT22;2695;49.444;11.054;2022-08-19T04:14:13;22.30;99.90
5346;DHT22;2695;49.444;11.054;2022-08-19T04:16:42;22.30;99.90
5346;DHT22;2695;49.444;11.054;2022-08-19T04:19:11;22.30;99.90
5346;DHT22;2695;49.444;11.054;2022-08-19T04:21:40;22.30;99.90
5346;DHT22;2695;49.444;11.054;2022-08-19T04:24:09;22.30;99.90
5346;DHT22;2695;49.444;11.054;2022-08-19T04:26:37;22.40;99.90
5346;DHT22;2695;49.444;11.054;2022-08-19T04:29:09;22.30;99.90
5346;DHT22;2695;49.444;11.054;2022-08-19T04:31:40;22.30;99.90
5346;DHT22;2695;49.444;11.054;2022-08-19T04:34:14;22.30;99.90
5346;DHT22;2695;49.444;11.054;2022-08-19T04:36:44;22.20;99.90
5346;DHT22;2695;49.444;11.054;2022-08-19T04:39:15;22.30;99.90
5346;DHT22;2695;49.444;11.054;2022-08-19T04:41:44;22.30;99.90
5346;DHT22;2695;49.444;11.054;2022-08-19T04:44:30;22.30;99.90
5346;DHT22;2695;49.444;11.054;2022-08-19T04:47:02;22.40;99.90
5346;DHT22;2695;49.444;11.054;2022-08-19T04:49:37;22.40;99.90
5346;DHT22;2695;49.444;11.054;2022-08-19T04:52:05;22.50;99.90
5346;DHT22;2695;49.444;11.054;2022-08-19T04:54:36;22.40;99.90
5346;DHT22;2695;49.444;11.054;2022-08-19T04:57:07;22.50;99.90
5346;DHT22;2695;49.444;11.054;2022-08-19T04:59:38;22.50;99.90
5346;DHT22;2695;49.444;11.054;2022-08-19T05:02:08;22.50;99.90
5346;DHT22;2695;49.444;11.054;2022-08-19T05:04:37;22.60;99.90
5346;DHT22;2695;49.444;11.054;2022-08-19T05:07:06;22.60;99.90
5346;DHT22;2695;49.444;11.054;2022-08-19T05:09:35;22.60;99.90
5346;DHT22;2695;49.444;11.054;2022-08-19T05:12:23;22.70;99.90
5346;DHT22;2695;49.444;11.054;2022-08-19T05:14:55;22.70;99.90
5346;DHT22;2695;49.444;11.054;2022-08-19T05:17:26;22.70;99.90
5346;DHT22;2695;49.444;11.054;2022-08-19T05:20:00;22.70;99.90
5346;DHT22;2695;49.444;11.054;2022-08-19T05:22:46;22.70;99.90
5346;DHT22;2695;49.444;11.054;2022-08-19T05:25:17;22.70;99.90
5346;DHT22;2695;49.444;11.054;2022-08-19T05:27:47;22.60;99.90
5346;DHT22;2695;49.444;11.054;2022-08-19T05:30:15;22.70;99.90
5346;DHT22;2695;49.444;11.054;2022-08-19T05:32:45;22.80;99.90
5346;DHT22;2695;49.444;11.054;2022-08-19T05:35:13;22.80;99.90
5346;DHT22;2695;49.444;11.054;2022-08-19T05:37:41;23.00;99.90
5346;DHT22;2695;49.444;11.054;2022-08-19T05:40:10;23.10;99.90
5346;DHT22;2695;49.444;11.054;2022-08-19T05:42:38;23.20;99.90
5346;DHT22;2695;49.444;11.054;2022-08-19T05:45:09;23.40;99.90
5346;DHT22;2695;49.444;11.054;2022-08-19T05:47:39;23.40;99.90
5346;DHT22;2695;49.444;11.054;2022-08-19T05:50:09;23.40;99.90
5346;DHT22;2695;49.444;11.054;2022-08-19T05:52:37;23.50;99.90
5346;DHT22;2695;49.444;11.054;2022-08-19T05:55:11;23.50;99.90
5346;DHT22;2695;49.444;11.054;2022-08-19T05:57:40;23.70;99.90
5346;DHT22;2695;49.444;11.054;2022-08-19T06:00:09;23.80;99.90
5346;DHT22;2695;49.444;11.054;2022-08-19T06:02:38;23.90;99.90
5346;DHT22;2695;49.444;11.054;2022-08-19T06:05:10;24.00;99.90
5346;DHT22;2695;49.444;11.054;2022-08-19T06:07:39;24.20;99.90
5346;DHT22;2695;49.444;11.054;2022-08-19T06:10:10;24.60;99.90
5346;DHT22;2695;49.444;11.054;2022-08-19T06:12:38;25.30;99.90
5346;DHT22;2695;49.444;11.054;2022-08-19T06:15:09;26.40;99.90
5346;DHT22;2695;49.444;11.054;2022-08-19T06:17:37;27.50;99.90
5346;DHT22;2695;49.444;11.054;2022-08-19T06:20:07;28.30;99.90
5346;DHT22;2695;49.444;11.054;2022-08-19T06:22:41;28.60;99.90
5346;DHT22;2695;49.444;11.054;2022-08-19T06:25:10;28.80;99.90
5346;DHT22;2695;49.444;11.054;2022-08-19T06:27:39;28.90;99.90
5346;DHT22;2695;49.444;11.054;2022-08-19T06:30:27;28.90;99.90
5346;DHT22;2695;49.444;11.054;2022-08-19T06:32:55;28.80;99.90
5346;DHT22;2695;49.444;11.054;2022-08-19T06:35:23;28.90;99.90
5346;DHT22;2695;49.444;11.054;2022-08-19T06:37:53;29.60;99.90
5346;DHT22;2695;49.444;11.054;2022-08-19T06:40:21;30.10;99.30
5346;DHT22;2695;49.444;11.054;2022-08-19T06:42:49;30.10;99.00
5346;DHT22;2695;49.444;11.054;2022-08-19T06:45:21;29.90;98.50
5346;DHT22;2695;49.444;11.054;2022-08-19T06:48:00;29.40;99.20
5346;DHT22;2695;49.444;11.054;2022-08-19T06:50:28;28.70;99.90
5346;DHT22;2695;49.444;11.054;2022-08-19T06:52:58;28.20;99.90
5346;DHT22;2695;49.444;11.054;2022-08-19T06:55:30;27.80;99.90
5346;DHT22;2695;49.444;11.054;2022-08-19T06:58:01;27.40;99.90
5346;DHT22;2695;49.444;11.054;2022-08-19T07:00:30;27.00;99.90
5346;DHT22;2695;49.444;11.054;2022-08-19T07:02:58;26.60;99.90
5346;DHT22;2695;49.444;11.054;2022-08-19T07:05:38;26.30;99.90
5346;DHT22;2695;49.444;11.054;2022-08-19T07:08:12;26.00;99.90
5346;DHT22;2695;49.444;11.054;2022-08-19T07:10:43;25.70;99.90
5346;DHT22;2695;49.444;11.054;2022-08-19T07:13:11;25.70;99.90
5346;DHT22;2695;49.444;11.054;2022-08-19T07:15:39;25.70;99.90
5346;DHT22;2695;49.444;11.054;2022-08-19T07:18:08;25.60;99.90
5346;DHT22;2695;49.444;11.054;2022-08-19T07:20:37;25.70;99.90
5346;DHT22;2695;49.444;11.054;2022-08-19T07:23:09;25.60;99.90
5346;DHT22;2695;49.444;11.054;2022-08-19T07:25:43;25.40;99.90
5346;DHT22;2695;49.444;11.054;2022-08-19T07:28:19;25.30;99.90
5346;DHT22;2695;49.444;11.054;2022-08-19T07:30:51;25.30;99.90
5346;DHT22;2695;49.444;11.054;2022-08-19T07:33:19;25.20;99.90
5346;DHT22;2695;49.444;11.054;2022-08-19T07:35:47;25.10;99.90
5346;DHT22;2695;49.444;11.054;2022-08-19T07:38:16;25.00;99.90
5346;DHT22;2695;49.444;11.054;2022-08-19T07:40:45;25.00;99.90
5346;DHT22;2695;49.444;11.054;2022-08-19T07:43:13;24.80;99.90
5346;DHT22;2695;49.444;11.054;2022-08-19T07:45:49;24.70;99.90
5346;DHT22;2695;49.444;11.054;2022-08-19T07:48:17;24.60;99.90
5346;DHT22;2695;49.444;11.054;2022-08-19T07:50:45;24.50;99.90
5346;DHT22;2695;49.444;11.054;2022-08-19T07:53:15;24.40;99.90
5346;DHT22;2695;49.444;11.054;2022-08-19T07:55:44;24.20;99.90
5346;DHT22;2695;49.444;11.054;2022-08-19T07:58:14;24.10;99.90
5346;DHT22;2695;49.444;11.054;2022-08-19T08:00:44;24.10;99.90
5346;DHT22;2695;49.444;11.054;2022-08-19T08:03:13;23.90;99.90
5346;DHT22;2695;49.444;11.054;2022-08-19T08:05:42;23.90;99.90
5346;DHT22;2695;49.444;11.054;2022-08-19T08:08:32;24.10;99.90
5346;DHT22;2695;49.444;11.054;2022-08-19T08:11:20;24.00;99.90
5346;DHT22;2695;49.444;11.054;2022-08-19T08:13:49;24.10;99.90
5346;DHT22;2695;49.444;11.054;2022-08-19T08:16:33;24.20;99.90
5346;DHT22;2695;49.444;11.054;2022-08-19T08:19:06;24.30;99.90
5346;DHT22;2695;49.444;11.054;2022-08-19T08:21:52;24.50;99.90
5346;DHT22;2695;49.444;11.054;2022-08-19T08:24:20;24.90;99.90
5346;DHT22;2695;49.444;11.054;2022-08-19T08:26:57;25.10;99.90
5346;DHT22;2695;49.444;11.054;2022-08-19T08:29:25;25.30;99.90
5346;DHT22;2695;49.444;11.054;2022-08-19T08:32:01;25.40;99.90
5346;DHT22;2695;49.444;11.054;2022-08-19T08:34:29;25.50;99.90
5346;DHT22;2695;49.444;11.054;2022-08-19T08:36:57;25.50;99.90
5346;DHT22;2695;49.444;11.054;2022-08-19T08:39:25;25.50;99.90
5346;DHT22;2695;49.444;11.054;2022-08-19T08:41:58;25.40;99.90
5346;DHT22;2695;49.444;11.054;2022-08-19T08:44:49;25.30;99.90
5346;DHT22;2695;49.444;11.054;2022-08-19T08:47:26;25.20;99.90
5346;DHT22;2695;49.444;11.054;2022-08-19T08:50:01;25.10;99.90
5346;DHT22;2695;49.444;11.054;2022-08-19T08:52:34;25.10;99.90
5346;DHT22;2695;49.444;11.054;2022-08-19T08:55:08;24.80;99.90
5346;DHT22;2695;49.444;11.054;2022-08-19T08:57:52;24.70;99.90
5346;DHT22;2695;49.444;11.054;2022-08-19T09:00:23;24.50;99.90
5346;DHT22;2695;49.444;11.054;2022-08-19T09:02:56;24.40;99.90
5346;DHT22;2695;49.444;11.054;2022-08-19T09:05:38;24.40;99.90
5346;DHT22;2695;49.444;11.054;2022-08-19T09:08:20;24.20;99.90
5346;DHT22;2695;49.444;11.054;2022-08-19T09:10:53;24.10;99.90
5346;DHT22;2695;49.444;11.054;2022-08-19T09:13:28;24.10;99.90
5346;DHT22;2695;49.444;11.054;2022-08-19T09:16:06;23.90;99.90
5346;DHT22;2695;49.444;11.054;2022-08-19T09:18:40;24.00;99.90
5346;DHT22;2695;49.444;11.054;2022-08-19T09:21:09;23.80;99.90
5346;DHT22;2695;49.444;11.054;2022-08-19T09:23:37;23.80;99.90
5346;DHT22;2695;49.444;11.054;2022-08-19T09:26:09;23.80;99.90
5346;DHT22;2695;49.444;11.054;2022-08-19T09:28:45;23.70;99.90
5346;DHT22;2695;49.444;11.054;2022-08-19T09:31:16;23.80;99.90
5346;DHT22;2695;49.444;11.054;2022-08-19T09:33:45;24.00;99.90
5346;DHT22;2695;49.444;11.054;2022-08-19T09:36:15;24.20;99.90
5346;DHT22;2695;49.444;11.054;2022-08-19T09:38:56;24.10;99.90
5346;DHT22;2695;49.444;11.054;2022-08-19T09:41:25;24.10;99.90
5346;DHT22;2695;49.444;11.054;2022-08-19T09:43:57;24.10;99.90
5346;DHT22;2695;49.444;11.054;2022-08-19T09:46:27;24.00;99.90
5346;DHT22;2695;49.444;11.054;2022-08-19T09:48:59;23.90;99.90
5346;DHT22;2695;49.444;11.054;2022-08-19T09:51:32;23.90;99.90
5346;DHT22;2695;49.444;11.054;2022-08-19T09:54:02;23.90;99.90
5346;DHT22;2695;49.444;11.054;2022-08-19T09:56:31;23.90;99.90
5346;DHT22;2695;49.444;11.054;2022-08-19T09:59:02;24.00;99.90
5346;DHT22;2695;49.444;11.054;2022-08-19T10:01:31;24.10;99.90
5346;DHT22;2695;49.444;11.054;2022-08-19T10:04:00;24.20;99.90
5346;DHT22;2695;49.444;11.054;2022-08-19T10:06:37;24.20;99.90
5346;DHT22;2695;49.444;11.054;2022-08-19T10:09:13;24.20;99.90
5346;DHT22;2695;49.444;11.054;2022-08-19T10:11:42;24.20;99.90
5346;DHT22;2695;49.444;11.054;2022-08-19T10:14:22;24.10;99.90
5346;DHT22;2695;49.444;11.054;2022-08-19T10:16:50;24.20;99.90
5346;DHT22;2695;49.444;11.054;2022-08-19T10:19:18;24.20;99.90
5346;DHT22;2695;49.444;11.054;2022-08-19T10:21:52;24.30;99.90
5346;DHT22;2695;49.444;11.054;2022-08-19T10:24:26;24.30;99.90
5346;DHT22;2695;49.444;11.054;2022-08-19T10:26:55;24.30;99.90
5346;DHT22;2695;49.444;11.054;2022-08-19T10:29:27;24.20;99.90
5346;DHT22;2695;49.444;11.054;2022-08-19T10:31:59;24.20;99.90
5346;DHT22;2695;49.444;11.054;2022-08-19T10:34:29;24.20;99.90
5346;DHT22;2695;49.444;11.054;2022-08-19T10:36:59;24.20;99.90
5346;DHT22;2695;49.444;11.054;2022-08-19T10:39:29;24.00;99.90
5346;DHT22;2695;49.444;11.054;2022-08-19T10:42:07;24.10;99.90
5346;DHT22;2695;49.444;11.054;2022-08-19T10:44:39;24.00;99.90
5346;DHT22;2695;49.444;11.054;2022-08-19T10:47:10;23.90;99.90
5346;DHT22;2695;49.444;11.054;2022-08-19T10:49:50;23.90;99.90
5346;DHT22;2695;49.444;11.054;2022-08-19T10:52:38;24.00;99.90
5346;DHT22;2695;49.444;11.054;2022-08-19T10:55:17;24.10;99.90
5346;DHT22;2695;49.444;11.054;2022-08-19T10:58:04;24.20;99.90
5346;DHT22;2695;49.444;11.054;2022-08-19T11:00:37;24.20;99.90
5346;DHT22;2695;49.444;11.054;2022-08-19T11:03:07;24.10;99.90
5346;DHT22;2695;49.444;11.054;2022-08-19T11:05:36;24.10;99.90
5346;DHT22;2695;49.444;11.054;2022-08-19T11:08:06;24.10;99.90
5346;DHT22;2695;49.444;11.054;2022-08-19T11:10:49;24.10;99.90
5346;DHT22;2695;49.444;11.054;2022-08-19T11:13:17;24.00;99.90
5346;DHT22;2695;49.444;11.054;2022-08-19T11:15:47;24.10;99.90
5346;DHT22;2695;49.444;11.054;2022-08-19T11:18:16;24.10;99.90
5346;DHT22;2695;49.444;11.054;2022-08-19T11:20:44;24.10;99.90
5346;DHT22;2695;49.444;11.054;2022-08-19T11:23:12;24.00;99.90
5346;DHT22;2695;49.444;11.054;2022-08-19T11:25:40;24.00;99.90
5346;DHT22;2695;49.444;11.054;2022-08-19T11:28:08;24.00;99.90
5346;DHT22;2695;49.444;11.054;2022-08-19T11:30:37;24.00;99.90
5346;DHT22;2695;49.444;11.054;2022-08-19T11:33:07;23.90;99.90
5346;DHT22;2695;49.444;11.054;2022-08-19T11:35:39;23.90;99.90
5346;DHT22;2695;49.444;11.054;2022-08-19T11:38:08;23.90;99.90
5346;DHT22;2695;49.444;11.054;2022-08-19T11:40:36;23.90;99.90
5346;DHT22;2695;49.444;11.054;2022-08-19T11:43:04;23.90;99.90
5346;DHT22;2695;49.444;11.054;2022-08-19T11:45:32;23.90;99.90
5346;DHT22;2695;49.444;11.054;2022-08-19T11:48:01;23.90;99.90
5346;DHT22;2695;49.444;11.054;2022-08-19T11:50:31;23.80;99.90
5346;DHT22;2695;49.444;11.054;2022-08-19T11:52:59;23.80;99.90
5346;DHT22;2695;49.444;11.054;2022-08-19T11:55:27;23.80;99.90
5346;DHT22;2695;49.444;11.054;2022-08-19T11:57:55;23.70;99.90
5346;DHT22;2695;49.444;11.054;2022-08-19T12:00:23;23.60;99.90
5346;DHT22;2695;49.444;11.054;2022-08-19T12:02:51;23.30;99.90
5346;DHT22;2695;49.444;11.054;2022-08-19T12:05:19;23.10;99.90
5346;DHT22;2695;49.444;11.054;2022-08-19T12:07:49;22.80;99.90
5346;DHT22;2695;49.444;11.054;2022-08-19T12:10:17;22.60;99.90
5346;DHT22;2695;49.444;11.054;2022-08-19T12:12:52;22.40;99.90
5346;DHT22;2695;49.444;11.054;2022-08-19T12:15:24;22.30;99.90
5346;DHT22;2695;49.444;11.054;2022-08-19T12:18:04;22.10;99.90
5346;DHT22;2695;49.444;11.054;2022-08-19T12:20:34;22.10;99.90
5346;DHT22;2695;49.444;11.054;2022-08-19T12:23:05;22.10;99.90
5346;DHT22;2695;49.444;11.054;2022-08-19T12:25:33;22.10;99.90
5346;DHT22;2695;49.444;11.054;2022-08-19T12:28:02;22.10;99.90
5346;DHT22;2695;49.444;11.054;2022-08-19T12:30:30;22.00;99.90
5346;DHT22;2695;49.444;11.054;2022-08-19T12:32:58;21.90;99.90
5346;DHT22;2695;49.444;11.054;2022-08-19T12:35:27;21.90;99.90
5346;DHT22;2695;49.444;11.054;2022-08-19T12:37:55;21.90;99.90
5346;DHT22;2695;49.444;11.054;2022-08-19T12:40:25;21.80;99.90
5346;DHT22;2695;49.444;11.054;2022-08-19T12:42:53;21.70;99.90
5346;DHT22;2695;49.444;11.054;2022-08-19T12:45:21;21.70;99.90
5346;DHT22;2695;49.444;11.054;2022-08-19T12:47:50;21.70;99.90
5346;DHT22;2695;49.444;11.054;2022-08-19T12:50:53;21.60;99.90
5346;DHT22;2695;49.444;11.054;2022-08-19T12:53:30;21.70;99.90
5346;DHT22;2695;49.444;11.054;2022-08-19T12:56:07;21.80;99.90
5346;DHT22;2695;49.444;11.054;2022-08-19T12:58:38;22.00;99.90
5346;DHT22;2695;49.444;11.054;2022-08-19T13:01:15;22.00;99.90
5346;DHT22;2695;49.444;11.054;2022-08-19T13:03:49;22.00;99.90
5346;DHT22;2695;49.444;11.054;2022-08-19T13:06:18;22.10;99.90
5346;DHT22;2695;49.444;11.054;2022-08-19T13:08:47;22.10;99.90
5346;DHT22;2695;49.444;11.054;2022-08-19T13:11:18;22.10;99.90
5346;DHT22;2695;49.444;11.054;2022-08-19T13:13:48;22.20;99.90
5346;DHT22;2695;49.444;11.054;2022-08-19T13:16:18;22.20;99.90
5346;DHT22;2695;49.444;11.054;2022-08-19T13:18:48;22.30;99.90
5346;DHT22;2695;49.444;11.054;2022-08-19T13:21:19;22.40;99.90
5346;DHT22;2695;49.444;11.054;2022-08-19T13:23:49;22.50;99.90
5346;DHT22;2695;49.444;11.054;2022-08-19T13:26:18;22.70;99.90
5346;DHT22;2695;49.444;11.054;2022-08-19T13:28:46;22.70;99.90
5346;DHT22;2695;49.444;11.054;2022-08-19T13:31:36;22.80;99.90
5346;DHT22;2695;49.444;11.054;2022-08-19T13:34:29;23.00;99.90
5346;DHT22;2695;49.444;11.054;2022-08-19T13:36:58;23.00;99.90
5346;DHT22;2695;49.444;11.054;2022-08-19T13:39:26;23.00;99.90
5346;DHT22;2695;49.444;11.054;2022-08-19T13:41:55;23.00;99.90
5346;DHT22;2695;49.444;11.054;2022-08-19T13:44:24;22.90;99.90
5346;DHT22;2695;49.444;11.054;2022-08-19T13:46:53;22.90;99.90
5346;DHT22;2695;49.444;11.054;2022-08-19T13:49:21;22.90;99.90
5346;DHT22;2695;49.444;11.054;2022-08-19T13:51:49;23.00;99.90
5346;DHT22;2695;49.444;11.054;2022-08-19T13:54:18;23.00;99.90
5346;DHT22;2695;49.444;11.054;2022-08-19T13:56:46;23.00;99.90
5346;DHT22;2695;49.444;11.054;2022-08-19T13:59:15;23.00;99.90
5346;DHT22;2695;49.444;11.054;2022-08-19T14:01:44;23.00;99.90
5346;DHT22;2695;49.444;11.054;2022-08-19T14:04:12;22.90;99.90
5346;DHT22;2695;49.444;11.054;2022-08-19T14:06:40;22.70;99.90
5346;DHT22;2695;49.444;11.054;2022-08-19T14:09:08;22.60;99.90
5346;DHT22;2695;49.444;11.054;2022-08-19T14:11:37;22.50;99.90
5346;DHT22;2695;49.444;11.054;2022-08-19T14:14:05;22.40;99.90
5346;DHT22;2695;49.444;11.054;2022-08-19T14:16:34;22.30;99.90
5346;DHT22;2695;49.444;11.054;2022-08-19T14:19:02;22.20;99.90
5346;DHT22;2695;49.444;11.054;2022-08-19T14:21:30;22.20;99.90
5346;DHT22;2695;49.444;11.054;2022-08-19T14:23:59;22.10;99.90
5346;DHT22;2695;49.444;11.054;2022-08-19T14:26:28;21.90;99.90
5346;DHT22;2695;49.444;11.054;2022-08-19T14:28:59;21.90;99.90
5346;DHT22;2695;49.444;11.054;2022-08-19T14:31:28;21.80;99.90
5346;DHT22;2695;49.444;11.054;2022-08-19T14:33:58;21.70;99.90
5346;DHT22;2695;49.444;11.054;2022-08-19T14:36:26;21.60;99.90
5346;DHT22;2695;49.444;11.054;2022-08-19T14:38:55;21.30;99.90
5346;DHT22;2695;49.444;11.054;2022-08-19T14:41:25;21.20;99.90
5346;DHT22;2695;49.444;11.054;2022-08-19T14:43:54;21.10;99.90
5346;DHT22;2695;49.444;11.054;2022-08-19T14:46:24;21.00;99.90
5346;DHT22;2695;49.444;11.054;2022-08-19T14:48:55;21.00;99.90
5346;DHT22;2695;49.444;11.054;2022-08-19T14:51:27;20.90;99.90
5346;DHT22;2695;49.444;11.054;2022-08-19T14:53:55;20.80;99.90
5346;DHT22;2695;49.444;11.054;2022-08-19T14:56:31;20.80;99.90
5346;DHT22;2695;49.444;11.054;2022-08-19T14:58:59;20.70;99.90
5346;DHT22;2695;49.444;11.054;2022-08-19T15:01:28;20.70;99.90
5346;DHT22;2695;49.444;11.054;2022-08-19T15:03:57;20.60;99.90
5346;DHT22;2695;49.444;11.054;2022-08-19T15:06:27;20.60;99.90
5346;DHT22;2695;49.444;11.054;2022-08-19T15:08:55;20.60;99.90
5346;DHT22;2695;49.444;11.054;2022-08-19T15:11:29;20.60;99.90
5346;DHT22;2695;49.444;11.054;2022-08-19T15:13:59;20.60;99.90
5346;DHT22;2695;49.444;11.054;2022-08-19T15:16:28;20.60;99.90
5346;DHT22;2695;49.444;11.054;2022-08-19T15:18:57;20.60;99.90
5346;DHT22;2695;49.444;11.054;2022-08-19T15:21:28;20.60;99.90
5346;DHT22;2695;49.444;11.054;2022-08-19T15:23:57;20.60;99.90
5346;DHT22;2695;49.444;11.054;2022-08-19T15:26:27;20.70;99.90
5346;DHT22;2695;49.444;11.054;2022-08-19T15:28:59;20.60;99.90
5346;DHT22;2695;49.444;11.054;2022-08-19T15:31:28;20.60;99.90
5346;DHT22;2695;49.444;11.054;2022-08-19T15:34:04;20.60;99.90
5346;DHT22;2695;49.444;11.054;2022-08-19T15:36:34;20.60;99.90
5346;DHT22;2695;49.444;11.054;2022-08-19T15:39:03;20.50;99.90
5346;DHT22;2695;49.444;11.054;2022-08-19T15:41:32;20.50;99.90
5346;DHT22;2695;49.444;11.054;2022-08-19T15:44:05;20.50;99.90
5346;DHT22;2695;49.444;11.054;2022-08-19T15:46:36;20.40;99.90
5346;DHT22;2695;49.444;11.054;2022-08-19T15:49:05;20.30;99.90
5346;DHT22;2695;49.444;11.054;2022-08-19T15:51:36;20.30;99.90
5346;DHT22;2695;49.444;11.054;2022-08-19T15:54:07;20.30;99.90
5346;DHT22;2695;49.444;11.054;2022-08-19T15:56:35;20.20;99.90
5346;DHT22;2695;49.444;11.054;2022-08-19T15:59:34;20.20;99.90
5346;DHT22;2695;49.444;11.054;2022-08-19T16:02:23;20.20;99.90
5346;DHT22;2695;49.444;11.054;2022-08-19T16:05:14;20.20;99.90
5346;DHT22;2695;49.444;11.054;2022-08-19T16:08:07;20.10;99.90
5346;DHT22;2695;49.444;11.054;2022-08-19T16:10:36;20.20;99.90